sensor_id;sensor_type;location;lat;lon;timestamp;pressure;altitude;pressure_sealevel;temperature;humidity
6532;BME280;3299;42.004;24.868;2023-12-04T00:00:45;98502.31;;;7.96;100.00
6532;BME280;3299;42.004;24.868;2023-12-04T00:03:10;98465.53;;;7.79;100.00
6532;BME280;3299;42.004;24.868;2023-12-04T00:05:36;98561.75;;;8.38;100.00
6532;BME280;3299;42.004;24.868;2023-12-04T00:08:01;98507.41;;;8.12;100.00
6532;BME280;3299;42.004;24.868;2023-12-04T00:10:26;98591.16;;;8.50;100.00
6532;BME280;3299;42.004;24.868;2023-12-04T00:12:52;98540.56;;;7.88;100.00
6532;BME280;3299;42.004;24.868;2023-12-04T00:15:19;98523.38;;;7.73;100.00
6532;BME280;3299;42.004;24.868;2023-12-04T00:17:44;98558.66;;;8.02;100.00
6532;BME280;3299;42.004;24.868;2023-12-04T00:20:10;98530.19;;;7.74;100.00
6532;BME280;3299;42.004;24.868;2023-12-04T00:22:37;98501.22;;;7.40;100.00
6532;BME280;3299;42.004;24.868;2023-12-04T00:25:03;98535.09;;;7.48;100.00
6532;BME280;3299;42.004;24.868;2023-12-04T00:27:29;98560.34;;;7.72;100.00
6532;BME280;3299;42.004;24.868;2023-12-04T00:29:55;98541.56;;;7.70;100.00
6532;BME280;3299;42.004;24.868;2023-12-04T00:32:20;98561.31;;;7.85;100.00
6532;BME280;3299;42.004;24.868;2023-12-04T00:34:46;98490.09;;;7.39;100.00
6532;BME280;3299;42.004;24.868;2023-12-04T00:37:11;98633.13;;;8.22;100.00
6532;BME280;3299;42.004;24.868;2023-12-04T00:39:37;98589.56;;;8.02;100.00
6532;BME280;3299;42.004;24.868;2023-12-04T00:42:02;98540.97;;;7.81;100.00
6532;BME280;3299;42.004;24.868;2023-12-04T00:44:28;98528.91;;;7.81;100.00
6532;BME280;3299;42.004;24.868;2023-12-04T00:46:53;98615.50;;;8.30;100.00
6532;BME280;3299;42.004;24.868;2023-12-04T00:49:19;98558.81;;;7.99;100.00
6532;BME280;3299;42.004;24.868;2023-12-04T00:51:44;98529.28;;;7.60;100.00
6532;BME280;3299;42.004;24.868;2023-12-04T00:54:10;98529.78;;;7.66;100.00
6532;BME280;3299;42.004;24.868;2023-12-04T00:56:38;98631.13;;;8.27;100.00
6532;BME280;3299;42.004;24.868;2023-12-04T00:59:05;98536.81;;;7.78;100.00
6532;BME280;3299;42.004;24.868;2023-12-04T01:01:32;98612.50;;;8.22;100.00
6532;BME280;3299;42.004;24.868;2023-12-04T01:03:58;98625.63;;;8.33;100.00
6532;BME280;3299;42.004;24.868;2023-12-04T01:06:23;98540.22;;;7.79;100.00
6532;BME280;3299;42.004;24.868;2023-12-04T01:08:50;98591.22;;;8.03;100.00
6532;BME280;3299;42.004;24.868;2023-12-04T01:11:16;98614.50;;;8.17;100.00
6532;BME280;3299;42.004;24.868;2023-12-04T01:13:42;98593.66;;;8.06;100.00
6532;BME280;3299;42.004;24.868;2023-12-04T01:16:08;98652.91;;;8.37;100.00
6532;BME280;3299;42.004;24.868;2023-12-04T01:18:34;98643.25;;;8.41;100.00
6532;BME280;3299;42.004;24.868;2023-12-04T01:21:00;98606.25;;;8.11;100.00
6532;BME280;3299;42.004;24.868;2023-12-04T01:23:25;98565.16;;;7.78;100.00
6532;BME280;3299;42.004;24.868;2023-12-04T01:25:51;98617.16;;;8.16;100.00
6532;BME280;3299;42.004;24.868;2023-12-04T01:28:16;98636.69;;;8.35;100.00
6532;BME280;3299;42.004;24.868;2023-12-04T01:30:55;98611.00;;;8.18;100.00
6532;BME280;3299;42.004;24.868;2023-12-04T01:33:21;98643.09;;;8.28;100.00
6532;BME280;3299;42.004;24.868;2023-12-04T01:35:46;98642.00;;;8.32;100.00
6532;BME280;3299;42.004;24.868;2023-12-04T01:38:12;98615.66;;;8.12;100.00
6532;BME280;3299;42.004;24.868;2023-12-04T01:40:37;98599.47;;;7.94;100.00
6532;BME280;3299;42.004;24.868;2023-12-04T01:43:03;98602.03;;;7.63;100.00
6532;BME280;3299;42.004;24.868;2023-12-04T01:45:28;98624.41;;;7.78;100.00
6532;BME280;3299;42.004;24.868;2023-12-04T01:47:54;98581.63;;;7.60;100.00
6532;BME280;3299;42.004;24.868;2023-12-04T01:50:20;98658.78;;;8.08;100.00
6532;BME280;3299;42.004;24.868;2023-12-04T01:52:46;98650.41;;;7.89;100.00
6532;BME280;3299;42.004;24.868;2023-12-04T01:55:12;98667.28;;;7.95;100.00
6532;BME280;3299;42.004;24.868;2023-12-04T01:57:38;98671.94;;;7.88;100.00
6532;BME280;3299;42.004;24.868;2023-12-04T02:00:05;98677.25;;;7.85;100.00
6532;BME280;3299;42.004;24.868;2023-12-04T02:02:37;98656.88;;;7.81;100.00
6532;BME280;3299;42.004;24.868;2023-12-04T02:05:04;98668.94;;;7.96;100.00
6532;BME280;3299;42.004;24.868;2023-12-04T02:07:30;98648.16;;;7.83;100.00
6532;BME280;3299;42.004;24.868;2023-12-04T02:09:56;98663.69;;;7.97;100.00
6532;BME280;3299;42.004;24.868;2023-12-04T02:12:22;98571.13;;;7.32;100.00
6532;BME280;3299;42.004;24.868;2023-12-04T02:14:48;98563.06;;;7.38;100.00
6532;BME280;3299;42.004;24.868;2023-12-04T02:17:14;98647.56;;;7.94;100.00
6532;BME280;3299;42.004;24.868;2023-12-04T02:19:41;98596.03;;;7.47;100.00
6532;BME280;3299;42.004;24.868;2023-12-04T02:22:06;98652.28;;;7.55;100.00
6532;BME280;3299;42.004;24.868;2023-12-04T02:24:32;98627.25;;;7.41;100.00
6532;BME280;3299;42.004;24.868;2023-12-04T02:27:06;98693.94;;;7.78;100.00
6532;BME280;3299;42.004;24.868;2023-12-04T02:29:41;98696.94;;;7.86;100.00
6532;BME280;3299;42.004;24.868;2023-12-04T02:32:10;98651.88;;;7.62;100.00
6532;BME280;3299;42.004;24.868;2023-12-04T02:34:40;98647.16;;;7.38;100.00
6532;BME280;3299;42.004;24.868;2023-12-04T02:37:08;98710.88;;;7.82;100.00
6532;BME280;3299;42.004;24.868;2023-12-04T02:39:34;98534.47;;;6.64;100.00
6532;BME280;3299;42.004;24.868;2023-12-04T02:42:01;98695.91;;;7.58;100.00
6532;BME280;3299;42.004;24.868;2023-12-04T02:44:27;98614.63;;;7.04;100.00
6532;BME280;3299;42.004;24.868;2023-12-04T02:46:52;98694.03;;;7.44;100.00
6532;BME280;3299;42.004;24.868;2023-12-04T02:49:18;98660.78;;;7.07;100.00
6532;BME280;3299;42.004;24.868;2023-12-04T02:51:43;98616.25;;;6.73;100.00
6532;BME280;3299;42.004;24.868;2023-12-04T02:54:09;98698.53;;;7.24;100.00
6532;BME280;3299;42.004;24.868;2023-12-04T02:56:34;98657.25;;;6.76;100.00
6532;BME280;3299;42.004;24.868;2023-12-04T02:59:00;98681.69;;;6.84;100.00
6532;BME280;3299;42.004;24.868;2023-12-04T03:01:25;98600.16;;;6.35;100.00
6532;BME280;3299;42.004;24.868;2023-12-04T03:03:51;98707.41;;;7.01;100.00
6532;BME280;3299;42.004;24.868;2023-12-04T03:06:16;98675.16;;;6.77;100.00
6532;BME280;3299;42.004;24.868;2023-12-04T03:08:42;98663.69;;;6.67;100.00
6532;BME280;3299;42.004;24.868;2023-12-04T03:11:08;98617.38;;;6.33;100.00
6532;BME280;3299;42.004;24.868;2023-12-04T03:13:34;98668.66;;;6.70;100.00
6532;BME280;3299;42.004;24.868;2023-12-04T03:15:59;98694.69;;;6.98;100.00
6532;BME280;3299;42.004;24.868;2023-12-04T03:18:25;98730.69;;;7.15;100.00
6532;BME280;3299;42.004;24.868;2023-12-04T03:20:51;98685.59;;;6.74;100.00
6532;BME280;3299;42.004;24.868;2023-12-04T03:23:17;98665.94;;;6.56;100.00
6532;BME280;3299;42.004;24.868;2023-12-04T03:25:42;98733.94;;;7.02;100.00
6532;BME280;3299;42.004;24.868;2023-12-04T03:28:08;98679.78;;;6.71;100.00
6532;BME280;3299;42.004;24.868;2023-12-04T03:30:33;98722.84;;;6.84;100.00
6532;BME280;3299;42.004;24.868;2023-12-04T03:32:59;98732.41;;;6.64;100.00
6532;BME280;3299;42.004;24.868;2023-12-04T03:35:24;98740.50;;;6.73;100.00
6532;BME280;3299;42.004;24.868;2023-12-04T03:37:50;98710.63;;;6.71;100.00
6532;BME280;3299;42.004;24.868;2023-12-04T03:40:16;98746.59;;;6.89;100.00
6532;BME280;3299;42.004;24.868;2023-12-04T03:42:41;98676.50;;;6.50;100.00
6532;BME280;3299;42.004;24.868;2023-12-04T03:45:07;98723.66;;;6.85;100.00
6532;BME280;3299;42.004;24.868;2023-12-04T03:47:33;98669.25;;;6.58;100.00
6532;BME280;3299;42.004;24.868;2023-12-04T03:49:58;98714.34;;;6.99;100.00
6532;BME280;3299;42.004;24.868;2023-12-04T03:52:24;98729.78;;;7.16;100.00
6532;BME280;3299;42.004;24.868;2023-12-04T03:54:49;98738.78;;;6.91;100.00
6532;BME280;3299;42.004;24.868;2023-12-04T03:57:15;98750.53;;;7.13;100.00
6532;BME280;3299;42.004;24.868;2023-12-04T03:59:40;98754.53;;;7.19;100.00
6532;BME280;3299;42.004;24.868;2023-12-04T04:02:05;98670.25;;;6.73;100.00
6532;BME280;3299;42.004;24.868;2023-12-04T04:04:31;98755.81;;;7.10;100.00
6532;BME280;3299;42.004;24.868;2023-12-04T04:06:57;98716.00;;;6.83;100.00
6532;BME280;3299;42.004;24.868;2023-12-04T04:09:22;98745.09;;;7.02;100.00
6532;BME280;3299;42.004;24.868;2023-12-04T04:11:48;98775.72;;;7.07;100.00
6532;BME280;3299;42.004;24.868;2023-12-04T04:14:13;98688.13;;;6.40;100.00
6532;BME280;3299;42.004;24.868;2023-12-04T04:16:40;98724.31;;;6.71;100.00
6532;BME280;3299;42.004;24.868;2023-12-04T04:19:05;98728.13;;;6.81;100.00
6532;BME280;3299;42.004;24.868;2023-12-04T04:21:31;98723.72;;;6.66;100.00
6532;BME280;3299;42.004;24.868;2023-12-04T04:23:56;98727.06;;;6.50;100.00
6532;BME280;3299;42.004;24.868;2023-12-04T04:26:22;98709.59;;;6.39;100.00
6532;BME280;3299;42.004;24.868;2023-12-04T04:28:47;98746.53;;;6.55;100.00
6532;BME280;3299;42.004;24.868;2023-12-04T04:31:13;98716.09;;;6.46;100.00
6532;BME280;3299;42.004;24.868;2023-12-04T04:33:38;98739.56;;;6.57;100.00
6532;BME280;3299;42.004;24.868;2023-12-04T04:36:04;98725.88;;;6.40;100.00
6532;BME280;3299;42.004;24.868;2023-12-04T04:38:30;98752.66;;;6.34;100.00
6532;BME280;3299;42.004;24.868;2023-12-04T04:40:55;98794.25;;;6.61;100.00
6532;BME280;3299;42.004;24.868;2023-12-04T04:43:21;98767.22;;;6.52;100.00
6532;BME280;3299;42.004;24.868;2023-12-04T04:45:46;98780.28;;;6.66;100.00
6532;BME280;3299;42.004;24.868;2023-12-04T04:48:12;98781.56;;;6.58;100.00
6532;BME280;3299;42.004;24.868;2023-12-04T04:50:37;98753.34;;;6.19;100.00
6532;BME280;3299;42.004;24.868;2023-12-04T04:53:03;98712.72;;;5.72;100.00
6532;BME280;3299;42.004;24.868;2023-12-04T04:55:28;98711.81;;;5.73;100.00
6532;BME280;3299;42.004;24.868;2023-12-04T04:57:55;98704.88;;;5.56;100.00
6532;BME280;3299;42.004;24.868;2023-12-04T05:00:21;98757.50;;;5.85;100.00
6532;BME280;3299;42.004;24.868;2023-12-04T05:02:46;98777.09;;;5.87;100.00
6532;BME280;3299;42.004;24.868;2023-12-04T05:05:12;98783.50;;;5.97;100.00
6532;BME280;3299;42.004;24.868;2023-12-04T05:07:37;98820.88;;;6.23;100.00
6532;BME280;3299;42.004;24.868;2023-12-04T05:10:03;98776.28;;;6.05;100.00
6532;BME280;3299;42.004;24.868;2023-12-04T05:12:29;98819.63;;;6.31;100.00
6532;BME280;3299;42.004;24.868;2023-12-04T05:14:54;98765.16;;;6.05;100.00
6532;BME280;3299;42.004;24.868;2023-12-04T05:17:20;98738.09;;;5.98;100.00
6532;BME280;3299;42.004;24.868;2023-12-04T05:19:45;98820.69;;;6.63;100.00
6532;BME280;3299;42.004;24.868;2023-12-04T05:22:11;98765.50;;;6.34;100.00
6532;BME280;3299;42.004;24.868;2023-12-04T05:24:36;98841.75;;;6.89;100.00
6532;BME280;3299;42.004;24.868;2023-12-04T05:27:02;98779.94;;;6.55;100.00
6532;BME280;3299;42.004;24.868;2023-12-04T05:29:28;98838.56;;;6.84;100.00
6532;BME280;3299;42.004;24.868;2023-12-04T05:31:53;98846.63;;;6.77;100.00
6532;BME280;3299;42.004;24.868;2023-12-04T05:34:19;98766.81;;;6.24;100.00
6532;BME280;3299;42.004;24.868;2023-12-04T05:36:44;98811.69;;;6.54;100.00
6532;BME280;3299;42.004;24.868;2023-12-04T05:39:09;98764.31;;;6.41;100.00
6532;BME280;3299;42.004;24.868;2023-12-04T05:41:35;98845.31;;;6.68;100.00
6532;BME280;3299;42.004;24.868;2023-12-04T05:44:01;98816.56;;;6.42;100.00
6532;BME280;3299;42.004;24.868;2023-12-04T05:46:26;98835.03;;;6.31;100.00
6532;BME280;3299;42.004;24.868;2023-12-04T05:48:53;98842.66;;;6.33;100.00
6532;BME280;3299;42.004;24.868;2023-12-04T05:51:19;98845.16;;;6.34;100.00
6532;BME280;3299;42.004;24.868;2023-12-04T05:53:44;98829.47;;;6.40;100.00
6532;BME280;3299;42.004;24.868;2023-12-04T05:56:10;98884.28;;;6.59;100.00
6532;BME280;3299;42.004;24.868;2023-12-04T05:58:35;98887.16;;;6.72;100.00
6532;BME280;3299;42.004;24.868;2023-12-04T06:01:04;98859.19;;;6.64;100.00
6532;BME280;3299;42.004;24.868;2023-12-04T06:03:31;98819.94;;;6.42;100.00
6532;BME280;3299;42.004;24.868;2023-12-04T06:05:57;98882.22;;;6.67;100.00
6532;BME280;3299;42.004;24.868;2023-12-04T06:08:23;98799.00;;;6.14;100.00
6532;BME280;3299;42.004;24.868;2023-12-04T06:10:48;98796.69;;;6.08;100.00
6532;BME280;3299;42.004;24.868;2023-12-04T06:13:14;98816.59;;;6.22;100.00
6532;BME280;3299;42.004;24.868;2023-12-04T06:15:39;98876.16;;;6.68;100.00
6532;BME280;3299;42.004;24.868;2023-12-04T06:18:04;98860.53;;;6.54;100.00
6532;BME280;3299;42.004;24.868;2023-12-04T06:20:30;98904.22;;;6.73;100.00
6532;BME280;3299;42.004;24.868;2023-12-04T06:22:56;98814.16;;;6.00;100.00
6532;BME280;3299;42.004;24.868;2023-12-04T06:25:22;98821.09;;;5.98;100.00
6532;BME280;3299;42.004;24.868;2023-12-04T06:27:48;98822.50;;;5.65;100.00
6532;BME280;3299;42.004;24.868;2023-12-04T06:30:14;98901.84;;;5.71;100.00
6532;BME280;3299;42.004;24.868;2023-12-04T06:32:39;98827.81;;;5.21;100.00
6532;BME280;3299;42.004;24.868;2023-12-04T06:35:05;98858.41;;;5.47;100.00
6532;BME280;3299;42.004;24.868;2023-12-04T06:37:31;98844.31;;;5.35;100.00
6532;BME280;3299;42.004;24.868;2023-12-04T06:39:59;98878.03;;;5.68;100.00
6532;BME280;3299;42.004;24.868;2023-12-04T06:42:25;98861.56;;;5.73;100.00
6532;BME280;3299;42.004;24.868;2023-12-04T06:44:51;98928.06;;;6.19;100.00
6532;BME280;3299;42.004;24.868;2023-12-04T06:47:19;98909.69;;;6.28;100.00
6532;BME280;3299;42.004;24.868;2023-12-04T06:49:47;98926.38;;;6.38;100.00
6532;BME280;3299;42.004;24.868;2023-12-04T06:52:12;98866.81;;;6.10;100.00
6532;BME280;3299;42.004;24.868;2023-12-04T06:54:38;98847.44;;;6.03;100.00
6532;BME280;3299;42.004;24.868;2023-12-04T06:57:04;98859.06;;;5.92;100.00
6532;BME280;3299;42.004;24.868;2023-12-04T06:59:29;98846.31;;;6.09;100.00
6532;BME280;3299;42.004;24.868;2023-12-04T07:01:55;98844.38;;;6.14;100.00
6532;BME280;3299;42.004;24.868;2023-12-04T07:04:21;98933.66;;;6.47;100.00
6532;BME280;3299;42.004;24.868;2023-12-04T07:06:47;98893.50;;;6.26;100.00
6532;BME280;3299;42.004;24.868;2023-12-04T07:09:14;98915.56;;;6.30;100.00
6532;BME280;3299;42.004;24.868;2023-12-04T07:11:39;98880.03;;;6.21;100.00
6532;BME280;3299;42.004;24.868;2023-12-04T07:14:05;98944.28;;;6.78;100.00
6532;BME280;3299;42.004;24.868;2023-12-04T07:16:30;98882.69;;;6.57;100.00
6532;BME280;3299;42.004;24.868;2023-12-04T07:18:56;98899.16;;;6.71;100.00
6532;BME280;3299;42.004;24.868;2023-12-04T07:21:23;98916.59;;;6.83;100.00
6532;BME280;3299;42.004;24.868;2023-12-04T07:23:48;98967.44;;;7.15;100.00
6532;BME280;3299;42.004;24.868;2023-12-04T07:26:13;98927.38;;;6.91;100.00
6532;BME280;3299;42.004;24.868;2023-12-04T07:28:39;98883.25;;;6.63;100.00
6532;BME280;3299;42.004;24.868;2023-12-04T07:31:05;98884.38;;;6.58;100.00
6532;BME280;3299;42.004;24.868;2023-12-04T07:33:30;98926.81;;;6.85;100.00
6532;BME280;3299;42.004;24.868;2023-12-04T07:35:56;98883.66;;;6.54;100.00
6532;BME280;3299;42.004;24.868;2023-12-04T07:38:21;98875.53;;;6.45;100.00
6532;BME280;3299;42.004;24.868;2023-12-04T07:40:47;98967.69;;;6.91;100.00
6532;BME280;3299;42.004;24.868;2023-12-04T07:43:12;98918.56;;;6.78;100.00
6532;BME280;3299;42.004;24.868;2023-12-04T07:45:39;98931.44;;;6.78;100.00
6532;BME280;3299;42.004;24.868;2023-12-04T07:48:05;98870.88;;;6.34;100.00
6532;BME280;3299;42.004;24.868;2023-12-04T07:50:31;98964.66;;;7.01;100.00
6532;BME280;3299;42.004;24.868;2023-12-04T07:52:56;98896.59;;;6.71;100.00
6532;BME280;3299;42.004;24.868;2023-12-04T07:55:22;98917.16;;;7.08;100.00
6532;BME280;3299;42.004;24.868;2023-12-04T07:57:47;98955.84;;;7.42;100.00
6532;BME280;3299;42.004;24.868;2023-12-04T08:00:13;98958.75;;;7.53;100.00
6532;BME280;3299;42.004;24.868;2023-12-04T08:02:39;98877.66;;;7.09;100.00
6532;BME280;3299;42.004;24.868;2023-12-04T08:05:06;98977.63;;;7.71;100.00
6532;BME280;3299;42.004;24.868;2023-12-04T08:07:32;98894.19;;;7.22;100.00
6532;BME280;3299;42.004;24.868;2023-12-04T08:09:57;98923.22;;;7.43;100.00
6532;BME280;3299;42.004;24.868;2023-12-04T08:12:23;98975.13;;;7.69;100.00
6532;BME280;3299;42.004;24.868;2023-12-04T08:14:48;98923.28;;;7.24;100.00
6532;BME280;3299;42.004;24.868;2023-12-04T08:17:14;98994.28;;;7.64;100.00
6532;BME280;3299;42.004;24.868;2023-12-04T08:19:39;98989.44;;;7.58;100.00
6532;BME280;3299;42.004;24.868;2023-12-04T08:22:05;98957.66;;;7.40;100.00
6532;BME280;3299;42.004;24.868;2023-12-04T08:24:30;98938.19;;;7.35;100.00
6532;BME280;3299;42.004;24.868;2023-12-04T08:26:59;98916.00;;;7.32;100.00
6532;BME280;3299;42.004;24.868;2023-12-04T08:29:24;98998.84;;;7.76;100.00
6532;BME280;3299;42.004;24.868;2023-12-04T08:31:50;98953.97;;;7.46;100.00
6532;BME280;3299;42.004;24.868;2023-12-04T08:34:15;98963.75;;;7.56;100.00
6532;BME280;3299;42.004;24.868;2023-12-04T08:36:41;98971.88;;;7.66;100.00
6532;BME280;3299;42.004;24.868;2023-12-04T08:39:06;99007.91;;;8.01;100.00
6532;BME280;3299;42.004;24.868;2023-12-04T08:41:32;98920.16;;;7.53;100.00
6532;BME280;3299;42.004;24.868;2023-12-04T08:43:57;98998.72;;;8.13;100.00
6532;BME280;3299;42.004;24.868;2023-12-04T08:46:23;98921.94;;;7.68;100.00
6532;BME280;3299;42.004;24.868;2023-12-04T08:48:49;98958.16;;;7.82;100.00
6532;BME280;3299;42.004;24.868;2023-12-04T08:51:15;98938.88;;;7.74;100.00
6532;BME280;3299;42.004;24.868;2023-12-04T08:53:41;99016.38;;;8.22;100.00
6532;BME280;3299;42.004;24.868;2023-12-04T08:56:07;98976.06;;;8.02;100.00
6532;BME280;3299;42.004;24.868;2023-12-04T08:58:33;99002.38;;;8.09;100.00
6532;BME280;3299;42.004;24.868;2023-12-04T09:00:58;98992.16;;;8.07;100.00
6532;BME280;3299;42.004;24.868;2023-12-04T09:03:24;98964.03;;;7.86;100.00
6532;BME280;3299;42.004;24.868;2023-12-04T09:05:49;99021.84;;;8.14;100.00
6532;BME280;3299;42.004;24.868;2023-12-04T09:08:19;98887.63;;;7.34;100.00
6532;BME280;3299;42.004;24.868;2023-12-04T09:10:45;99009.88;;;8.13;100.00
6532;BME280;3299;42.004;24.868;2023-12-04T09:13:11;99015.66;;;8.18;100.00
6532;BME280;3299;42.004;24.868;2023-12-04T09:15:36;98912.56;;;7.67;100.00
6532;BME280;3299;42.004;24.868;2023-12-04T09:18:02;98997.06;;;8.12;100.00
6532;BME280;3299;42.004;24.868;2023-12-04T09:20:27;99000.56;;;8.11;100.00
6532;BME280;3299;42.004;24.868;2023-12-04T09:22:53;99001.69;;;8.05;100.00
6532;BME280;3299;42.004;24.868;2023-12-04T09:25:19;98946.56;;;7.57;100.00
6532;BME280;3299;42.004;24.868;2023-12-04T09:27:44;98955.13;;;7.74;100.00
6532;BME280;3299;42.004;24.868;2023-12-04T09:30:10;98909.44;;;7.44;100.00
6532;BME280;3299;42.004;24.868;2023-12-04T09:32:36;98965.69;;;7.87;100.00
6532;BME280;3299;42.004;24.868;2023-12-04T09:35:01;98963.78;;;7.90;100.00
6532;BME280;3299;42.004;24.868;2023-12-04T09:37:27;98988.13;;;8.19;100.00
6532;BME280;3299;42.004;24.868;2023-12-04T09:39:52;98934.84;;;7.85;100.00
6532;BME280;3299;42.004;24.868;2023-12-04T09:42:19;98977.91;;;8.17;100.00
6532;BME280;3299;42.004;24.868;2023-12-04T09:44:47;98975.06;;;8.23;100.00
6532;BME280;3299;42.004;24.868;2023-12-04T09:47:13;98986.41;;;8.36;100.00
6532;BME280;3299;42.004;24.868;2023-12-04T09:49:40;98919.22;;;8.05;100.00
6532;BME280;3299;42.004;24.868;2023-12-04T09:52:06;98914.22;;;8.02;100.00
6532;BME280;3299;42.004;24.868;2023-12-04T09:54:33;98931.59;;;8.16;100.00
6532;BME280;3299;42.004;24.868;2023-12-04T09:57:01;98900.75;;;7.97;100.00
6532;BME280;3299;42.004;24.868;2023-12-04T09:59:27;98919.16;;;8.07;100.00
6532;BME280;3299;42.004;24.868;2023-12-04T10:01:55;98931.97;;;8.25;100.00
6532;BME280;3299;42.004;24.868;2023-12-04T10:04:21;98987.44;;;8.49;100.00
6532;BME280;3299;42.004;24.868;2023-12-04T10:06:52;98998.19;;;8.57;100.00
6532;BME280;3299;42.004;24.868;2023-12-04T10:09:19;98940.44;;;8.27;100.00
6532;BME280;3299;42.004;24.868;2023-12-04T10:11:47;98943.63;;;8.32;100.00
6532;BME280;3299;42.004;24.868;2023-12-04T10:14:18;98922.72;;;8.21;100.00
6532;BME280;3299;42.004;24.868;2023-12-04T10:16:43;99000.31;;;8.66;100.00
6532;BME280;3299;42.004;24.868;2023-12-04T10:19:27;98939.72;;;8.25;100.00
6532;BME280;3299;42.004;24.868;2023-12-04T10:21:55;98933.03;;;8.21;100.00
6532;BME280;3299;42.004;24.868;2023-12-04T10:24:37;98919.84;;;8.27;100.00
6532;BME280;3299;42.004;24.868;2023-12-04T10:27:08;98914.84;;;8.24;100.00
6532;BME280;3299;42.004;24.868;2023-12-04T10:29:47;98912.47;;;8.20;100.00
6532;BME280;3299;42.004;24.868;2023-12-04T10:32:13;98959.31;;;8.45;100.00
6532;BME280;3299;42.004;24.868;2023-12-04T10:34:41;99001.66;;;8.73;100.00
6532;BME280;3299;42.004;24.868;2023-12-04T10:37:09;99006.50;;;8.79;100.00
6532;BME280;3299;42.004;24.868;2023-12-04T10:39:51;99015.06;;;8.64;100.00
6532;BME280;3299;42.004;24.868;2023-12-04T10:42:29;98959.88;;;8.17;100.00
6532;BME280;3299;42.004;24.868;2023-12-04T10:44:58;99004.75;;;8.47;100.00
6532;BME280;3299;42.004;24.868;2023-12-04T10:47:24;98966.03;;;8.32;100.00
6532;BME280;3299;42.004;24.868;2023-12-04T10:49:50;98914.22;;;8.02;100.00
6532;BME280;3299;42.004;24.868;2023-12-04T10:52:17;98871.72;;;7.77;100.00
6532;BME280;3299;42.004;24.868;2023-12-04T10:54:48;98999.88;;;8.58;100.00
6532;BME280;3299;42.004;24.868;2023-12-04T10:57:22;99007.44;;;8.61;100.00
6532;BME280;3299;42.004;24.868;2023-12-04T10:59:51;98948.78;;;8.32;100.00
6532;BME280;3299;42.004;24.868;2023-12-04T11:02:21;98994.31;;;8.66;100.00
6532;BME280;3299;42.004;24.868;2023-12-04T11:04:55;99005.50;;;8.82;100.00
6532;BME280;3299;42.004;24.868;2023-12-04T11:07:24;99019.69;;;8.90;100.00
6532;BME280;3299;42.004;24.868;2023-12-04T11:09:53;98970.09;;;8.36;73.67
6532;BME280;3299;42.004;24.868;2023-12-04T11:12:25;99007.47;;;8.44;77.49
6532;BME280;3299;42.004;24.868;2023-12-04T11:14:55;98963.88;;;8.06;77.98
6532;BME280;3299;42.004;24.868;2023-12-04T11:17:21;98999.25;;;8.21;77.50
6532;BME280;3299;42.004;24.868;2023-12-04T11:19:52;99013.78;;;8.22;77.94
6532;BME280;3299;42.004;24.868;2023-12-04T11:22:18;99000.78;;;8.06;78.78
6532;BME280;3299;42.004;24.868;2023-12-04T11:24:47;98971.34;;;7.93;79.13
6532;BME280;3299;42.004;24.868;2023-12-04T11:27:17;99015.03;;;8.13;77.04
6532;BME280;3299;42.004;24.868;2023-12-04T11:29:44;98971.03;;;7.82;76.73
6532;BME280;3299;42.004;24.868;2023-12-04T11:32:17;98923.69;;;7.51;77.39
6532;BME280;3299;42.004;24.868;2023-12-04T11:34:56;99017.22;;;7.87;77.85
6532;BME280;3299;42.004;24.868;2023-12-04T11:37:24;98930.69;;;7.30;75.99
6532;BME280;3299;42.004;24.868;2023-12-04T11:39:50;99022.19;;;7.90;75.65
6532;BME280;3299;42.004;24.868;2023-12-04T11:42:23;99017.91;;;7.90;74.55
6532;BME280;3299;42.004;24.868;2023-12-04T11:44:49;99017.25;;;7.68;75.56
6532;BME280;3299;42.004;24.868;2023-12-04T11:47:15;98961.66;;;7.29;79.91
6532;BME280;3299;42.004;24.868;2023-12-04T11:49:40;99006.56;;;7.40;78.88
6532;BME280;3299;42.004;24.868;2023-12-04T11:52:06;98970.47;;;7.23;77.59
6532;BME280;3299;42.004;24.868;2023-12-04T11:57:26;98940.03;;;6.96;78.18
6532;BME280;3299;42.004;24.868;2023-12-04T12:05:22;98986.19;;;7.17;79.19
6532;BME280;3299;42.004;24.868;2023-12-04T12:07:48;98931.41;;;6.97;80.06
6532;BME280;3299;42.004;24.868;2023-12-04T12:10:15;98927.75;;;7.02;80.08
6532;BME280;3299;42.004;24.868;2023-12-04T12:12:44;98931.19;;;7.20;80.07
6532;BME280;3299;42.004;24.868;2023-12-04T12:15:10;98940.50;;;7.22;81.20
6532;BME280;3299;42.004;24.868;2023-12-04T12:17:40;99017.25;;;7.68;75.95
6532;BME280;3299;42.004;24.868;2023-12-04T12:20:07;99028.59;;;7.64;77.92
6532;BME280;3299;42.004;24.868;2023-12-04T12:22:34;99008.91;;;7.63;79.96
6532;BME280;3299;42.004;24.868;2023-12-04T12:25:01;98960.50;;;7.34;79.09
6532;BME280;3299;42.004;24.868;2023-12-04T12:27:30;99014.13;;;7.62;80.84
6532;BME280;3299;42.004;24.868;2023-12-04T12:29:56;98954.00;;;7.27;82.62
6532;BME280;3299;42.004;24.868;2023-12-04T12:32:21;98954.63;;;7.32;82.36
6532;BME280;3299;42.004;24.868;2023-12-04T12:34:47;98968.56;;;7.45;78.74
6532;BME280;3299;42.004;24.868;2023-12-04T12:37:12;98916.59;;;7.20;81.13
6532;BME280;3299;42.004;24.868;2023-12-04T12:39:39;98990.44;;;7.72;81.33
6532;BME280;3299;42.004;24.868;2023-12-04T12:42:05;98915.31;;;7.29;80.14
6532;BME280;3299;42.004;24.868;2023-12-04T12:44:40;99007.22;;;7.81;81.80
6532;BME280;3299;42.004;24.868;2023-12-04T12:47:06;98870.59;;;6.96;79.90
6532;BME280;3299;42.004;24.868;2023-12-04T12:49:35;98992.25;;;7.70;78.38
6532;BME280;3299;42.004;24.868;2023-12-04T12:52:01;98992.81;;;7.58;78.98
6532;BME280;3299;42.004;24.868;2023-12-04T12:54:27;98949.88;;;7.23;79.15
6532;BME280;3299;42.004;24.868;2023-12-04T12:56:52;98986.00;;;7.57;80.20
6532;BME280;3299;42.004;24.868;2023-12-04T12:59:17;98991.44;;;7.51;84.14
6532;BME280;3299;42.004;24.868;2023-12-04T13:01:43;98953.88;;;7.30;84.77
6532;BME280;3299;42.004;24.868;2023-12-04T13:04:13;98952.03;;;7.32;84.57
6532;BME280;3299;42.004;24.868;2023-12-04T13:06:40;99000.72;;;7.55;87.28
6532;BME280;3299;42.004;24.868;2023-12-04T13:09:05;98930.22;;;7.22;86.69
6532;BME280;3299;42.004;24.868;2023-12-04T13:11:32;98930.38;;;7.19;88.13
6532;BME280;3299;42.004;24.868;2023-12-04T13:13:57;98946.44;;;7.41;82.97
6532;BME280;3299;42.004;24.868;2023-12-04T13:16:23;98993.94;;;7.71;79.06